This is the latest recevied weather packets stored in our database for station/object 2E0RGX-13. If no packets are shown the sender has not sent any weather packets the latest 10 day(s).
| Time | Temp. | Humidity | Pressure | Rain* | Wind** | Luminosity | Snow |
|---|---|---|---|---|---|---|---|
| 1777722099 | 20° C | 41% | 1013.1 hPa | 0 mm | - | 5 W/m² | - |
| 1777719091 | 18.33° C | 48% | 1013.8 hPa | 0 mm | - | 4 W/m² | - |
| 1777718867 | 18.89° C | 51% | 1013.6 hPa | 0 mm | - | 4 W/m² | - |
| 1777718563 | 18.33° C | 54% | 1013.6 hPa | 0 mm | - | 5 W/m² | - |
| 1777718259 | 18.33° C | 57% | 1013.6 hPa | 0 mm | - | 4 W/m² | - |
| 1777717955 | 17.78° C | 58% | 1013.7 hPa | 0 mm | - | 5 W/m² | - |
| 1777717651 | 17.78° C | 56% | 1013.9 hPa | 0 mm | - | 3 W/m² | - |
| 1777717347 | 17.22° C | 58% | 1013.7 hPa | 0 mm | - | 2 W/m² | - |
| 1777717043 | 17.22° C | 61% | 1013.9 hPa | 0 mm | - | 4 W/m² | - |
| 1777716739 | 17.22° C | 62% | 1013.8 hPa | 0 mm | - | 4 W/m² | - |
| 1777716435 | 16.67° C | 63% | 1013.8 hPa | 0 mm | - | 4 W/m² | - |
| 1777716131 | 17.22° C | 62% | 1014 hPa | 0 mm | - | 3 W/m² | - |
| 1777715491 | 17.22° C | 62% | 1014 hPa | 0 mm | - | 4 W/m² | - |
| 1777715187 | 17.22° C | 63% | 1014.1 hPa | 0 mm | - | 4 W/m² | - |
| 1777714883 | 16.67° C | 64% | 1013.8 hPa | 0 mm | - | 4 W/m² | - |
| 1777714435 | 16.67° C | 66% | 1014.1 hPa | 0 mm | - | 4 W/m² | - |
| 1777714131 | 16.11° C | 67% | 1014.3 hPa | 0 mm | - | 2 W/m² | - |
| 1777713827 | 16.11° C | 67% | 1014.2 hPa | 0 mm | - | 3 W/m² | - |
| 1777713523 | 16.67° C | 65% | 1014.4 hPa | 0 mm | - | 3 W/m² | - |
| 1777713219 | 16.11° C | 67% | 1014.3 hPa | 0 mm | - | 3 W/m² | - |
| 1777712915 | 16.11° C | 67% | 1014.1 hPa | 0 mm | - | 2 W/m² | - |
| 1777712611 | 16.11° C | 67% | 1014.3 hPa | 0 mm | - | 4 W/m² | - |
| 1777712307 | 16.67° C | 66% | 1014.7 hPa | 0 mm | - | 4 W/m² | - |
| 1777712003 | 16.11° C | 68% | 1014.7 hPa | 0 mm | - | 3 W/m² | - |
| 1777711699 | 15.56° C | 69% | 1014.6 hPa | 0 mm | - | 4 W/m² | - |
* Rain latest hour (hover to see other rain measurements)
** Current wind speed in m/s (hover to see current wind gust speed)